sensor_id;sensor_type;location;lat;lon;timestamp;P1;durP1;ratioP1;P2;durP2;ratioP2
59770;SDS011;45649;53.014;6.600;2022-09-09T00:00:40;9.03;;;8.23;;
59770;SDS011;45649;53.014;6.600;2022-09-09T00:03:14;8.40;;;7.10;;
59770;SDS011;45649;53.014;6.600;2022-09-09T00:05:55;10.13;;;8.30;;
59770;SDS011;45649;53.014;6.600;2022-09-09T00:08:56;8.90;;;8.10;;
59770;SDS011;45649;53.014;6.600;2022-09-09T00:11:23;8.27;;;7.47;;
59770;SDS011;45649;53.014;6.600;2022-09-09T00:13:53;10.43;;;7.70;;
59770;SDS011;45649;53.014;6.600;2022-09-09T00:16:22;10.40;;;8.23;;
59770;SDS011;45649;53.014;6.600;2022-09-09T00:21:18;8.63;;;7.83;;
59770;SDS011;45649;53.014;6.600;2022-09-09T00:23:47;9.43;;;8.47;;
59770;SDS011;45649;53.014;6.600;2022-09-09T00:26:31;8.43;;;7.60;;
59770;SDS011;45649;53.014;6.600;2022-09-09T00:32:15;8.67;;;7.63;;
59770;SDS011;45649;53.014;6.600;2022-09-09T00:37:43;8.57;;;7.70;;
59770;SDS011;45649;53.014;6.600;2022-09-09T00:43:07;8.53;;;7.73;;
59770;SDS011;45649;53.014;6.600;2022-09-09T00:48:54;9.43;;;7.67;;
59770;SDS011;45649;53.014;6.600;2022-09-09T00:51:43;9.33;;;7.10;;
59770;SDS011;45649;53.014;6.600;2022-09-09T00:54:33;8.07;;;7.23;;
59770;SDS011;45649;53.014;6.600;2022-09-09T01:00:39;9.67;;;7.60;;
59770;SDS011;45649;53.014;6.600;2022-09-09T01:02:56;9.67;;;7.03;;
59770;SDS011;45649;53.014;6.600;2022-09-09T01:11:33;9.90;;;7.30;;
59770;SDS011;45649;53.014;6.600;2022-09-09T01:14:32;8.00;;;7.20;;
59770;SDS011;45649;53.014;6.600;2022-09-09T01:17:07;10.03;;;7.60;;
59770;SDS011;45649;53.014;6.600;2022-09-09T01:19:45;7.70;;;6.87;;
59770;SDS011;45649;53.014;6.600;2022-09-09T01:22:25;8.73;;;6.80;;
59770;SDS011;45649;53.014;6.600;2022-09-09T01:27:55;8.10;;;6.33;;
59770;SDS011;45649;53.014;6.600;2022-09-09T01:30:27;8.67;;;7.30;;
59770;SDS011;45649;53.014;6.600;2022-09-09T01:32:55;7.73;;;6.87;;
59770;SDS011;45649;53.014;6.600;2022-09-09T01:35:29;6.63;;;6.00;;
59770;SDS011;45649;53.014;6.600;2022-09-09T01:38:08;8.27;;;7.53;;
59770;SDS011;45649;53.014;6.600;2022-09-09T01:40:34;10.50;;;6.77;;
59770;SDS011;45649;53.014;6.600;2022-09-09T01:43:00;7.20;;;6.53;;
59770;SDS011;45649;53.014;6.600;2022-09-09T01:45:26;8.70;;;6.53;;
59770;SDS011;45649;53.014;6.600;2022-09-09T01:47:52;7.47;;;6.30;;
59770;SDS011;45649;53.014;6.600;2022-09-09T01:50:18;8.10;;;6.40;;
59770;SDS011;45649;53.014;6.600;2022-09-09T01:52:45;9.73;;;6.70;;
59770;SDS011;45649;53.014;6.600;2022-09-09T01:55:14;7.20;;;5.80;;
59770;SDS011;45649;53.014;6.600;2022-09-09T02:00:25;7.37;;;5.73;;
59770;SDS011;45649;53.014;6.600;2022-09-09T02:03:02;7.33;;;6.60;;
59770;SDS011;45649;53.014;6.600;2022-09-09T02:05:38;9.83;;;6.27;;
59770;SDS011;45649;53.014;6.600;2022-09-09T02:08:07;6.97;;;6.27;;
59770;SDS011;45649;53.014;6.600;2022-09-09T02:10:49;7.47;;;6.20;;
59770;SDS011;45649;53.014;6.600;2022-09-09T02:13:32;7.50;;;6.70;;
59770;SDS011;45649;53.014;6.600;2022-09-09T02:19:03;6.10;;;5.50;;
59770;SDS011;45649;53.014;6.600;2022-09-09T02:21:41;9.03;;;6.53;;
59770;SDS011;45649;53.014;6.600;2022-09-09T02:24:10;6.60;;;5.70;;
59770;SDS011;45649;53.014;6.600;2022-09-09T02:26:40;6.80;;;5.60;;
59770;SDS011;45649;53.014;6.600;2022-09-09T02:29:09;6.37;;;5.27;;
59770;SDS011;45649;53.014;6.600;2022-09-09T02:31:39;6.37;;;5.73;;
59770;SDS011;45649;53.014;6.600;2022-09-09T02:34:07;7.87;;;5.90;;
59770;SDS011;45649;53.014;6.600;2022-09-09T02:36:36;9.75;;;6.70;;
59770;SDS011;45649;53.014;6.600;2022-09-09T02:39:05;10.63;;;6.10;;
59770;SDS011;45649;53.014;6.600;2022-09-09T02:41:34;7.30;;;5.27;;
59770;SDS011;45649;53.014;6.600;2022-09-09T02:44:05;7.53;;;5.87;;
59770;SDS011;45649;53.014;6.600;2022-09-09T02:46:47;5.57;;;5.03;;
59770;SDS011;45649;53.014;6.600;2022-09-09T02:55:46;5.63;;;4.37;;
59770;SDS011;45649;53.014;6.600;2022-09-09T02:58:12;7.60;;;4.90;;
59770;SDS011;45649;53.014;6.600;2022-09-09T03:00:42;8.23;;;4.60;;
59770;SDS011;45649;53.014;6.600;2022-09-09T03:03:11;6.73;;;4.60;;
59770;SDS011;45649;53.014;6.600;2022-09-09T03:05:37;7.00;;;4.67;;
59770;SDS011;45649;53.014;6.600;2022-09-09T03:08:04;6.20;;;4.57;;
59770;SDS011;45649;53.014;6.600;2022-09-09T03:10:31;5.53;;;4.50;;
59770;SDS011;45649;53.014;6.600;2022-09-09T03:12:57;8.17;;;4.27;;
59770;SDS011;45649;53.014;6.600;2022-09-09T03:15:23;6.47;;;3.90;;
59770;SDS011;45649;53.014;6.600;2022-09-09T03:17:48;5.93;;;3.90;;
59770;SDS011;45649;53.014;6.600;2022-09-09T03:20:14;6.77;;;4.30;;
59770;SDS011;45649;53.014;6.600;2022-09-09T03:22:40;8.73;;;4.17;;
59770;SDS011;45649;53.014;6.600;2022-09-09T03:25:06;5.33;;;4.40;;
59770;SDS011;45649;53.014;6.600;2022-09-09T03:27:32;7.83;;;5.07;;
59770;SDS011;45649;53.014;6.600;2022-09-09T03:29:58;7.13;;;4.43;;
59770;SDS011;45649;53.014;6.600;2022-09-09T03:32:24;5.43;;;4.57;;
59770;SDS011;45649;53.014;6.600;2022-09-09T03:34:51;6.18;;;5.00;;
59770;SDS011;45649;53.014;6.600;2022-09-09T03:37:17;5.87;;;4.40;;
59770;SDS011;45649;53.014;6.600;2022-09-09T03:39:46;6.37;;;4.30;;
59770;SDS011;45649;53.014;6.600;2022-09-09T03:42:12;4.83;;;3.90;;
59770;SDS011;45649;53.014;6.600;2022-09-09T03:44:44;5.43;;;3.83;;
59770;SDS011;45649;53.014;6.600;2022-09-09T03:47:15;4.77;;;4.00;;
59770;SDS011;45649;53.014;6.600;2022-09-09T03:49:42;5.27;;;4.50;;
59770;SDS011;45649;53.014;6.600;2022-09-09T03:52:08;5.33;;;3.70;;
59770;SDS011;45649;53.014;6.600;2022-09-09T03:54:34;4.17;;;3.80;;
59770;SDS011;45649;53.014;6.600;2022-09-09T03:57:00;7.37;;;4.00;;
59770;SDS011;45649;53.014;6.600;2022-09-09T03:59:26;4.13;;;3.17;;
59770;SDS011;45649;53.014;6.600;2022-09-09T04:01:52;5.00;;;4.10;;
59770;SDS011;45649;53.014;6.600;2022-09-09T04:04:18;4.43;;;3.77;;
59770;SDS011;45649;53.014;6.600;2022-09-09T04:06:45;4.93;;;3.40;;
59770;SDS011;45649;53.014;6.600;2022-09-09T04:09:11;4.90;;;3.50;;
59770;SDS011;45649;53.014;6.600;2022-09-09T04:11:37;3.90;;;3.50;;
59770;SDS011;45649;53.014;6.600;2022-09-09T04:14:03;4.10;;;3.50;;
59770;SDS011;45649;53.014;6.600;2022-09-09T04:16:31;4.00;;;3.57;;
59770;SDS011;45649;53.014;6.600;2022-09-09T04:18:58;5.20;;;4.10;;
59770;SDS011;45649;53.014;6.600;2022-09-09T04:21:25;4.50;;;4.10;;
59770;SDS011;45649;53.014;6.600;2022-09-09T04:23:51;6.18;;;5.10;;
59770;SDS011;45649;53.014;6.600;2022-09-09T04:26:17;5.37;;;4.63;;
59770;SDS011;45649;53.014;6.600;2022-09-09T04:28:43;5.50;;;5.00;;
59770;SDS011;45649;53.014;6.600;2022-09-09T04:31:10;8.07;;;5.23;;
59770;SDS011;45649;53.014;6.600;2022-09-09T04:33:54;5.70;;;4.73;;
59770;SDS011;45649;53.014;6.600;2022-09-09T04:36:20;8.87;;;5.37;;
59770;SDS011;45649;53.014;6.600;2022-09-09T04:38:46;6.27;;;5.50;;
59770;SDS011;45649;53.014;6.600;2022-09-09T04:41:13;6.60;;;5.90;;
59770;SDS011;45649;53.014;6.600;2022-09-09T04:43:41;5.93;;;5.33;;
59770;SDS011;45649;53.014;6.600;2022-09-09T04:46:07;5.63;;;5.10;;
59770;SDS011;45649;53.014;6.600;2022-09-09T04:48:33;7.47;;;5.70;;
59770;SDS011;45649;53.014;6.600;2022-09-09T04:51:00;8.40;;;5.73;;
59770;SDS011;45649;53.014;6.600;2022-09-09T04:53:29;6.60;;;5.90;;
59770;SDS011;45649;53.014;6.600;2022-09-09T04:58:28;7.50;;;6.80;;
59770;SDS011;45649;53.014;6.600;2022-09-09T05:00:53;8.70;;;7.20;;
59770;SDS011;45649;53.014;6.600;2022-09-09T05:03:19;7.17;;;6.57;;
59770;SDS011;45649;53.014;6.600;2022-09-09T05:05:45;7.83;;;7.13;;
59770;SDS011;45649;53.014;6.600;2022-09-09T05:08:10;8.87;;;7.47;;
59770;SDS011;45649;53.014;6.600;2022-09-09T05:10:37;7.93;;;7.23;;
59770;SDS011;45649;53.014;6.600;2022-09-09T05:13:04;8.73;;;6.87;;
59770;SDS011;45649;53.014;6.600;2022-09-09T05:15:31;9.03;;;7.77;;
59770;SDS011;45649;53.014;6.600;2022-09-09T05:17:58;8.67;;;7.70;;
59770;SDS011;45649;53.014;6.600;2022-09-09T05:20:25;8.30;;;7.50;;
59770;SDS011;45649;53.014;6.600;2022-09-09T05:22:55;8.00;;;7.10;;
59770;SDS011;45649;53.014;6.600;2022-09-09T05:25:21;8.40;;;7.60;;
59770;SDS011;45649;53.014;6.600;2022-09-09T05:27:50;7.93;;;7.23;;
59770;SDS011;45649;53.014;6.600;2022-09-09T05:30:18;9.73;;;8.20;;
59770;SDS011;45649;53.014;6.600;2022-09-09T05:32:44;8.20;;;7.23;;
59770;SDS011;45649;53.014;6.600;2022-09-09T05:35:10;9.10;;;6.27;;
59770;SDS011;45649;53.014;6.600;2022-09-09T05:37:36;9.77;;;6.80;;
59770;SDS011;45649;53.014;6.600;2022-09-09T05:40:01;9.17;;;7.03;;
59770;SDS011;45649;53.014;6.600;2022-09-09T05:42:30;7.20;;;6.50;;
59770;SDS011;45649;53.014;6.600;2022-09-09T05:44:57;7.20;;;6.60;;
59770;SDS011;45649;53.014;6.600;2022-09-09T05:47:23;7.60;;;6.90;;
59770;SDS011;45649;53.014;6.600;2022-09-09T05:49:48;7.70;;;6.90;;
59770;SDS011;45649;53.014;6.600;2022-09-09T05:52:14;8.60;;;6.83;;
59770;SDS011;45649;53.014;6.600;2022-09-09T05:54:40;8.07;;;7.10;;
59770;SDS011;45649;53.014;6.600;2022-09-09T05:57:07;7.67;;;6.87;;
59770;SDS011;45649;53.014;6.600;2022-09-09T05:59:33;7.20;;;5.87;;
59770;SDS011;45649;53.014;6.600;2022-09-09T06:01:59;7.00;;;6.40;;
59770;SDS011;45649;53.014;6.600;2022-09-09T06:04:24;7.37;;;6.67;;
59770;SDS011;45649;53.014;6.600;2022-09-09T06:06:50;8.53;;;6.80;;
59770;SDS011;45649;53.014;6.600;2022-09-09T06:09:16;7.63;;;6.83;;
59770;SDS011;45649;53.014;6.600;2022-09-09T06:11:42;6.97;;;6.27;;
59770;SDS011;45649;53.014;6.600;2022-09-09T06:14:08;8.10;;;7.07;;
59770;SDS011;45649;53.014;6.600;2022-09-09T06:16:34;5.83;;;5.23;;
59770;SDS011;45649;53.014;6.600;2022-09-09T06:19:02;7.10;;;6.33;;
59770;SDS011;45649;53.014;6.600;2022-09-09T06:21:30;9.60;;;6.93;;
59770;SDS011;45649;53.014;6.600;2022-09-09T06:24:01;7.00;;;6.37;;
59770;SDS011;45649;53.014;6.600;2022-09-09T06:26:28;7.27;;;6.50;;
59770;SDS011;45649;53.014;6.600;2022-09-09T06:28:55;8.00;;;7.30;;
59770;SDS011;45649;53.014;6.600;2022-09-09T06:31:23;7.93;;;7.10;;
59770;SDS011;45649;53.014;6.600;2022-09-09T06:33:53;7.60;;;6.77;;
59770;SDS011;45649;53.014;6.600;2022-09-09T06:36:21;7.77;;;7.07;;
59770;SDS011;45649;53.014;6.600;2022-09-09T06:38:49;7.50;;;6.87;;
59770;SDS011;45649;53.014;6.600;2022-09-09T06:41:15;7.57;;;6.70;;
59770;SDS011;45649;53.014;6.600;2022-09-09T06:43:43;6.23;;;5.63;;
59770;SDS011;45649;53.014;6.600;2022-09-09T06:46:13;8.93;;;6.87;;
59770;SDS011;45649;53.014;6.600;2022-09-09T06:48:41;7.87;;;6.47;;
59770;SDS011;45649;53.014;6.600;2022-09-09T06:51:13;8.00;;;7.20;;
59770;SDS011;45649;53.014;6.600;2022-09-09T06:53:42;7.50;;;6.77;;
59770;SDS011;45649;53.014;6.600;2022-09-09T06:58:35;7.37;;;6.67;;
59770;SDS011;45649;53.014;6.600;2022-09-09T07:01:15;7.53;;;6.50;;
59770;SDS011;45649;53.014;6.600;2022-09-09T07:03:42;9.43;;;7.23;;
59770;SDS011;45649;53.014;6.600;2022-09-09T07:06:14;6.93;;;6.33;;
59770;SDS011;45649;53.014;6.600;2022-09-09T07:08:42;6.83;;;6.23;;
59770;SDS011;45649;53.014;6.600;2022-09-09T07:11:09;6.27;;;5.77;;
59770;SDS011;45649;53.014;6.600;2022-09-09T07:13:36;6.70;;;6.10;;
59770;SDS011;45649;53.014;6.600;2022-09-09T07:16:09;8.83;;;6.17;;
59770;SDS011;45649;53.014;6.600;2022-09-09T07:18:40;7.37;;;6.77;;
59770;SDS011;45649;53.014;6.600;2022-09-09T07:21:07;6.57;;;6.03;;
59770;SDS011;45649;53.014;6.600;2022-09-09T07:23:34;8.03;;;5.77;;
59770;SDS011;45649;53.014;6.600;2022-09-09T07:26:01;7.47;;;6.27;;
59770;SDS011;45649;53.014;6.600;2022-09-09T07:28:28;5.30;;;4.90;;
59770;SDS011;45649;53.014;6.600;2022-09-09T07:30:56;7.17;;;6.20;;
59770;SDS011;45649;53.014;6.600;2022-09-09T07:33:24;6.37;;;5.77;;
59770;SDS011;45649;53.014;6.600;2022-09-09T07:35:51;5.90;;;5.40;;
59770;SDS011;45649;53.014;6.600;2022-09-09T07:38:18;6.87;;;6.00;;
59770;SDS011;45649;53.014;6.600;2022-09-09T07:40:45;6.47;;;5.87;;
59770;SDS011;45649;53.014;6.600;2022-09-09T07:43:11;6.33;;;5.70;;
59770;SDS011;45649;53.014;6.600;2022-09-09T07:45:37;6.50;;;5.53;;
59770;SDS011;45649;53.014;6.600;2022-09-09T07:48:03;6.90;;;5.53;;
59770;SDS011;45649;53.014;6.600;2022-09-09T07:50:30;7.00;;;5.73;;
59770;SDS011;45649;53.014;6.600;2022-09-09T07:52:55;5.90;;;5.50;;
59770;SDS011;45649;53.014;6.600;2022-09-09T07:55:21;5.57;;;5.00;;
59770;SDS011;45649;53.014;6.600;2022-09-09T07:57:52;4.80;;;4.40;;
59770;SDS011;45649;53.014;6.600;2022-09-09T08:00:18;6.17;;;5.37;;
59770;SDS011;45649;53.014;6.600;2022-09-09T08:02:47;5.90;;;5.30;;
59770;SDS011;45649;53.014;6.600;2022-09-09T08:05:13;6.30;;;5.10;;
59770;SDS011;45649;53.014;6.600;2022-09-09T08:07:40;6.93;;;5.07;;
59770;SDS011;45649;53.014;6.600;2022-09-09T08:10:05;5.63;;;5.13;;
59770;SDS011;45649;53.014;6.600;2022-09-09T08:12:32;4.17;;;3.33;;
59770;SDS011;45649;53.014;6.600;2022-09-09T08:14:58;6.00;;;5.33;;
59770;SDS011;45649;53.014;6.600;2022-09-09T08:17:23;8.07;;;5.60;;
59770;SDS011;45649;53.014;6.600;2022-09-09T08:19:49;7.00;;;5.53;;
59770;SDS011;45649;53.014;6.600;2022-09-09T08:22:15;8.47;;;5.43;;
59770;SDS011;45649;53.014;6.600;2022-09-09T08:24:41;5.33;;;4.80;;
59770;SDS011;45649;53.014;6.600;2022-09-09T08:27:07;8.67;;;5.10;;
59770;SDS011;45649;53.014;6.600;2022-09-09T08:29:34;5.93;;;5.40;;
59770;SDS011;45649;53.014;6.600;2022-09-09T08:32:00;8.03;;;5.13;;
59770;SDS011;45649;53.014;6.600;2022-09-09T08:34:27;5.60;;;5.00;;
59770;SDS011;45649;53.014;6.600;2022-09-09T08:36:56;8.37;;;5.00;;
59770;SDS011;45649;53.014;6.600;2022-09-09T08:39:22;8.07;;;5.57;;
59770;SDS011;45649;53.014;6.600;2022-09-09T08:58:28;6.63;;;4.40;;
59770;SDS011;45649;53.014;6.600;2022-09-09T09:12:02;11.97;;;4.97;;
59770;SDS011;45649;53.014;6.600;2022-09-09T09:14:40;9.93;;;4.57;;
59770;SDS011;45649;53.014;6.600;2022-09-09T09:19:40;10.27;;;4.87;;
59770;SDS011;45649;53.014;6.600;2022-09-09T09:22:17;8.83;;;4.43;;
59770;SDS011;45649;53.014;6.600;2022-09-09T09:27:25;8.47;;;4.03;;
59770;SDS011;45649;53.014;6.600;2022-09-09T09:29:58;8.37;;;4.43;;
59770;SDS011;45649;53.014;6.600;2022-09-09T09:32:25;5.13;;;4.07;;
59770;SDS011;45649;53.014;6.600;2022-09-09T09:34:56;7.73;;;3.90;;
59770;SDS011;45649;53.014;6.600;2022-09-09T09:37:28;5.50;;;3.37;;
59770;SDS011;45649;53.014;6.600;2022-09-09T09:40:12;6.63;;;3.47;;
59770;SDS011;45649;53.014;6.600;2022-09-09T09:42:52;6.77;;;3.17;;
59770;SDS011;45649;53.014;6.600;2022-09-09T09:45:35;7.43;;;3.70;;
59770;SDS011;45649;53.014;6.600;2022-09-09T09:48:10;6.40;;;3.30;;
59770;SDS011;45649;53.014;6.600;2022-09-09T09:50:46;5.57;;;2.90;;
59770;SDS011;45649;53.014;6.600;2022-09-09T09:53:18;7.23;;;2.80;;
59770;SDS011;45649;53.014;6.600;2022-09-09T09:55:54;5.83;;;3.10;;
59770;SDS011;45649;53.014;6.600;2022-09-09T09:58:25;4.90;;;3.00;;
59770;SDS011;45649;53.014;6.600;2022-09-09T10:00:56;6.37;;;2.70;;
59770;SDS011;45649;53.014;6.600;2022-09-09T10:05:54;6.53;;;2.40;;
59770;SDS011;45649;53.014;6.600;2022-09-09T10:08:22;7.30;;;2.77;;
59770;SDS011;45649;53.014;6.600;2022-09-09T10:17:08;7.33;;;2.50;;
59770;SDS011;45649;53.014;6.600;2022-09-09T10:19:33;7.00;;;2.60;;
59770;SDS011;45649;53.014;6.600;2022-09-09T10:22:05;7.70;;;2.30;;
59770;SDS011;45649;53.014;6.600;2022-09-09T10:27:47;5.57;;;2.00;;
59770;SDS011;45649;53.014;6.600;2022-09-09T10:30:21;5.03;;;1.80;;
59770;SDS011;45649;53.014;6.600;2022-09-09T10:35:32;3.60;;;1.57;;
59770;SDS011;45649;53.014;6.600;2022-09-09T10:38:17;3.43;;;1.60;;
59770;SDS011;45649;53.014;6.600;2022-09-09T10:41:19;6.17;;;1.97;;
59770;SDS011;45649;53.014;6.600;2022-09-09T10:55:10;5.20;;;1.80;;
59770;SDS011;45649;53.014;6.600;2022-09-09T10:57:53;5.10;;;1.90;;
59770;SDS011;45649;53.014;6.600;2022-09-09T11:03:02;5.13;;;1.73;;
59770;SDS011;45649;53.014;6.600;2022-09-09T11:05:30;4.67;;;1.90;;
59770;SDS011;45649;53.014;6.600;2022-09-09T11:08:15;5.13;;;1.60;;
59770;SDS011;45649;53.014;6.600;2022-09-09T11:10:45;5.43;;;1.70;;
59770;SDS011;45649;53.014;6.600;2022-09-09T11:18:47;3.93;;;1.60;;
59770;SDS011;45649;53.014;6.600;2022-09-09T11:21:18;5.80;;;2.00;;
59770;SDS011;45649;53.014;6.600;2022-09-09T11:23:56;3.40;;;1.50;;
59770;SDS011;45649;53.014;6.600;2022-09-09T11:26:32;5.93;;;1.90;;
59770;SDS011;45649;53.014;6.600;2022-09-09T11:37:19;2.43;;;1.50;;
59770;SDS011;45649;53.014;6.600;2022-09-09T11:40:25;6.30;;;1.60;;
59770;SDS011;45649;53.014;6.600;2022-09-09T11:43:10;4.17;;;1.60;;
59770;SDS011;45649;53.014;6.600;2022-09-09T11:45:38;3.67;;;1.70;;
59770;SDS011;45649;53.014;6.600;2022-09-09T11:48:05;5.50;;;1.88;;
59770;SDS011;45649;53.014;6.600;2022-09-09T11:50:57;4.60;;;1.80;;
59770;SDS011;45649;53.014;6.600;2022-09-09T11:56:54;6.27;;;1.67;;
59770;SDS011;45649;53.014;6.600;2022-09-09T12:02:30;5.17;;;2.10;;
59770;SDS011;45649;53.014;6.600;2022-09-09T12:05:24;5.23;;;2.10;;
59770;SDS011;45649;53.014;6.600;2022-09-09T12:08:04;4.97;;;2.20;;
59770;SDS011;45649;53.014;6.600;2022-09-09T12:10:34;6.97;;;2.20;;
59770;SDS011;45649;53.014;6.600;2022-09-09T12:13:22;5.30;;;2.00;;
59770;SDS011;45649;53.014;6.600;2022-09-09T12:15:57;2.83;;;1.90;;
59770;SDS011;45649;53.014;6.600;2022-09-09T12:21:12;5.57;;;2.33;;
59770;SDS011;45649;53.014;6.600;2022-09-09T12:23:50;3.97;;;1.70;;
59770;SDS011;45649;53.014;6.600;2022-09-09T12:26:31;4.67;;;1.87;;
59770;SDS011;45649;53.014;6.600;2022-09-09T12:36:42;6.97;;;2.30;;
59770;SDS011;45649;53.014;6.600;2022-09-09T12:39:16;2.27;;;1.43;;
59770;SDS011;45649;53.014;6.600;2022-09-09T12:41:53;5.90;;;1.80;;
59770;SDS011;45649;53.014;6.600;2022-09-09T12:44:23;5.87;;;1.90;;
59770;SDS011;45649;53.014;6.600;2022-09-09T12:46:50;3.90;;;1.67;;
59770;SDS011;45649;53.014;6.600;2022-09-09T12:49:31;5.33;;;1.80;;
59770;SDS011;45649;53.014;6.600;2022-09-09T12:52:25;4.20;;;1.60;;
59770;SDS011;45649;53.014;6.600;2022-09-09T12:54:51;7.50;;;1.80;;
59770;SDS011;45649;53.014;6.600;2022-09-09T12:57:19;2.37;;;1.50;;
59770;SDS011;45649;53.014;6.600;2022-09-09T12:59:47;2.83;;;1.57;;
59770;SDS011;45649;53.014;6.600;2022-09-09T13:02:17;5.03;;;1.60;;
59770;SDS011;45649;53.014;6.600;2022-09-09T13:04:43;3.80;;;1.60;;
59770;SDS011;45649;53.014;6.600;2022-09-09T13:07:12;3.10;;;1.33;;
59770;SDS011;45649;53.014;6.600;2022-09-09T13:09:39;9.17;;;1.67;;
59770;SDS011;45649;53.014;6.600;2022-09-09T13:12:05;4.03;;;1.40;;
59770;SDS011;45649;53.014;6.600;2022-09-09T13:14:42;5.07;;;1.40;;
59770;SDS011;45649;53.014;6.600;2022-09-09T13:17:17;4.67;;;1.40;;
59770;SDS011;45649;53.014;6.600;2022-09-09T13:19:49;4.43;;;1.50;;
59770;SDS011;45649;53.014;6.600;2022-09-09T13:22:22;3.87;;;2.13;;
59770;SDS011;45649;53.014;6.600;2022-09-09T13:24:58;4.67;;;1.97;;
59770;SDS011;45649;53.014;6.600;2022-09-09T13:27:51;3.67;;;1.70;;
59770;SDS011;45649;53.014;6.600;2022-09-09T13:30:43;3.67;;;1.80;;
59770;SDS011;45649;53.014;6.600;2022-09-09T13:36:12;4.70;;;1.73;;
59770;SDS011;45649;53.014;6.600;2022-09-09T13:41:33;2.30;;;1.30;;
59770;SDS011;45649;53.014;6.600;2022-09-09T13:44:42;2.33;;;1.20;;
59770;SDS011;45649;53.014;6.600;2022-09-09T13:47:17;3.37;;;1.30;;
59770;SDS011;45649;53.014;6.600;2022-09-09T13:49:48;3.53;;;1.50;;
59770;SDS011;45649;53.014;6.600;2022-09-09T13:52:17;2.93;;;1.50;;
59770;SDS011;45649;53.014;6.600;2022-09-09T13:54:50;3.33;;;1.40;;
59770;SDS011;45649;53.014;6.600;2022-09-09T13:57:18;2.80;;;1.40;;
59770;SDS011;45649;53.014;6.600;2022-09-09T13:59:46;4.07;;;1.60;;
59770;SDS011;45649;53.014;6.600;2022-09-09T14:02:12;4.00;;;1.57;;
59770;SDS011;45649;53.014;6.600;2022-09-09T14:04:38;3.87;;;1.50;;
59770;SDS011;45649;53.014;6.600;2022-09-09T14:07:07;3.03;;;1.13;;
59770;SDS011;45649;53.014;6.600;2022-09-09T14:09:39;2.80;;;1.30;;
59770;SDS011;45649;53.014;6.600;2022-09-09T14:12:05;2.70;;;1.27;;
59770;SDS011;45649;53.014;6.600;2022-09-09T14:14:34;1.30;;;1.20;;
59770;SDS011;45649;53.014;6.600;2022-09-09T14:17:01;6.53;;;2.20;;
59770;SDS011;45649;53.014;6.600;2022-09-09T14:19:26;5.70;;;1.73;;
59770;SDS011;45649;53.014;6.600;2022-09-09T14:21:52;2.70;;;1.07;;
59770;SDS011;45649;53.014;6.600;2022-09-09T14:24:18;2.60;;;1.33;;
59770;SDS011;45649;53.014;6.600;2022-09-09T14:26:44;1.97;;;1.10;;
59770;SDS011;45649;53.014;6.600;2022-09-09T14:29:10;18.10;;;3.53;;
59770;SDS011;45649;53.014;6.600;2022-09-09T14:31:35;2.60;;;1.20;;
59770;SDS011;45649;53.014;6.600;2022-09-09T14:34:01;2.87;;;1.50;;
59770;SDS011;45649;53.014;6.600;2022-09-09T14:36:27;3.13;;;1.30;;
59770;SDS011;45649;53.014;6.600;2022-09-09T14:38:52;4.33;;;1.50;;
59770;SDS011;45649;53.014;6.600;2022-09-09T14:41:18;3.13;;;1.40;;
59770;SDS011;45649;53.014;6.600;2022-09-09T14:43:45;2.83;;;1.20;;
59770;SDS011;45649;53.014;6.600;2022-09-09T14:46:15;2.67;;;1.30;;
59770;SDS011;45649;53.014;6.600;2022-09-09T14:48:41;2.50;;;1.20;;
59770;SDS011;45649;53.014;6.600;2022-09-09T14:51:14;3.13;;;1.30;;
59770;SDS011;45649;53.014;6.600;2022-09-09T14:53:41;1.57;;;1.10;;
59770;SDS011;45649;53.014;6.600;2022-09-09T14:56:12;1.40;;;1.20;;
59770;SDS011;45649;53.014;6.600;2022-09-09T14:58:39;2.23;;;1.03;;
59770;SDS011;45649;53.014;6.600;2022-09-09T15:01:06;2.30;;;1.03;;
59770;SDS011;45649;53.014;6.600;2022-09-09T15:03:37;2.13;;;0.90;;
59770;SDS011;45649;53.014;6.600;2022-09-09T15:06:07;2.60;;;0.90;;
59770;SDS011;45649;53.014;6.600;2022-09-09T15:08:35;1.70;;;0.93;;
59770;SDS011;45649;53.014;6.600;2022-09-09T15:11:02;1.10;;;0.83;;
59770;SDS011;45649;53.014;6.600;2022-09-09T15:13:30;4.93;;;0.90;;
59770;SDS011;45649;53.014;6.600;2022-09-09T15:16:00;1.73;;;0.73;;
59770;SDS011;45649;53.014;6.600;2022-09-09T15:18:32;1.83;;;1.00;;
59770;SDS011;45649;53.014;6.600;2022-09-09T15:20:59;1.43;;;0.90;;
59770;SDS011;45649;53.014;6.600;2022-09-09T15:23:26;1.80;;;0.90;;
59770;SDS011;45649;53.014;6.600;2022-09-09T15:25:53;2.07;;;1.00;;
59770;SDS011;45649;53.014;6.600;2022-09-09T15:28:20;4.20;;;1.20;;
59770;SDS011;45649;53.014;6.600;2022-09-09T15:30:49;2.97;;;1.40;;
59770;SDS011;45649;53.014;6.600;2022-09-09T15:33:17;2.63;;;1.40;;
59770;SDS011;45649;53.014;6.600;2022-09-09T15:35:43;2.67;;;1.37;;
59770;SDS011;45649;53.014;6.600;2022-09-09T15:38:09;1.47;;;1.23;;
59770;SDS011;45649;53.014;6.600;2022-09-09T15:40:35;3.00;;;1.30;;
59770;SDS011;45649;53.014;6.600;2022-09-09T15:43:00;3.07;;;1.50;;
59770;SDS011;45649;53.014;6.600;2022-09-09T15:45:28;2.07;;;1.33;;
59770;SDS011;45649;53.014;6.600;2022-09-09T15:47:57;2.27;;;0.90;;
59770;SDS011;45649;53.014;6.600;2022-09-09T15:50:23;2.10;;;1.13;;
59770;SDS011;45649;53.014;6.600;2022-09-09T15:52:48;2.83;;;1.27;;
59770;SDS011;45649;53.014;6.600;2022-09-09T15:55:14;1.37;;;1.23;;
59770;SDS011;45649;53.014;6.600;2022-09-09T15:57:40;3.10;;;1.20;;
59770;SDS011;45649;53.014;6.600;2022-09-09T16:00:06;1.40;;;1.20;;
59770;SDS011;45649;53.014;6.600;2022-09-09T16:02:33;2.10;;;1.10;;
59770;SDS011;45649;53.014;6.600;2022-09-09T16:04:58;1.77;;;0.90;;
59770;SDS011;45649;53.014;6.600;2022-09-09T16:07:26;3.93;;;1.30;;
59770;SDS011;45649;53.014;6.600;2022-09-09T16:09:51;1.87;;;1.10;;
59770;SDS011;45649;53.014;6.600;2022-09-09T16:12:17;2.50;;;1.17;;
59770;SDS011;45649;53.014;6.600;2022-09-09T16:14:43;2.00;;;1.10;;
59770;SDS011;45649;53.014;6.600;2022-09-09T16:17:10;1.63;;;0.93;;
59770;SDS011;45649;53.014;6.600;2022-09-09T16:19:36;3.07;;;1.10;;
59770;SDS011;45649;53.014;6.600;2022-09-09T16:22:02;1.67;;;1.33;;
59770;SDS011;45649;53.014;6.600;2022-09-09T16:24:29;1.83;;;1.20;;
59770;SDS011;45649;53.014;6.600;2022-09-09T16:26:58;2.63;;;1.20;;
59770;SDS011;45649;53.014;6.600;2022-09-09T16:29:24;2.17;;;1.33;;
59770;SDS011;45649;53.014;6.600;2022-09-09T16:31:52;1.30;;;1.07;;
59770;SDS011;45649;53.014;6.600;2022-09-09T16:34:19;3.13;;;1.43;;
59770;SDS011;45649;53.014;6.600;2022-09-09T16:36:46;2.47;;;1.20;;
59770;SDS011;45649;53.014;6.600;2022-09-09T16:39:17;2.37;;;1.50;;
59770;SDS011;45649;53.014;6.600;2022-09-09T16:41:45;2.67;;;1.30;;
59770;SDS011;45649;53.014;6.600;2022-09-09T16:44:12;1.80;;;1.40;;
59770;SDS011;45649;53.014;6.600;2022-09-09T16:46:41;1.60;;;1.20;;
59770;SDS011;45649;53.014;6.600;2022-09-09T16:49:08;2.30;;;1.30;;
59770;SDS011;45649;53.014;6.600;2022-09-09T16:51:40;3.33;;;1.50;;
59770;SDS011;45649;53.014;6.600;2022-09-09T16:54:18;3.90;;;1.40;;
59770;SDS011;45649;53.014;6.600;2022-09-09T16:56:45;2.00;;;1.40;;
59770;SDS011;45649;53.014;6.600;2022-09-09T16:59:13;5.33;;;1.60;;
59770;SDS011;45649;53.014;6.600;2022-09-09T17:01:41;2.73;;;1.80;;
59770;SDS011;45649;53.014;6.600;2022-09-09T17:04:18;2.00;;;1.43;;
59770;SDS011;45649;53.014;6.600;2022-09-09T17:06:49;2.37;;;1.30;;
59770;SDS011;45649;53.014;6.600;2022-09-09T17:09:16;2.97;;;1.53;;
59770;SDS011;45649;53.014;6.600;2022-09-09T17:11:43;2.30;;;1.40;;
59770;SDS011;45649;53.014;6.600;2022-09-09T17:14:11;3.30;;;1.30;;
59770;SDS011;45649;53.014;6.600;2022-09-09T17:16:42;2.47;;;1.52;;
59770;SDS011;45649;53.014;6.600;2022-09-09T17:19:08;3.47;;;1.40;;
59770;SDS011;45649;53.014;6.600;2022-09-09T17:21:35;1.90;;;1.40;;
59770;SDS011;45649;53.014;6.600;2022-09-09T17:24:01;2.30;;;1.50;;
59770;SDS011;45649;53.014;6.600;2022-09-09T17:26:28;1.73;;;1.50;;